sensor_id;sensor_type;location;lat;lon;timestamp;pressure;altitude;pressure_sealevel;temperature;humidity
13952;BME280;39535;52.192;9.886;2022-11-03T00:01:55;101138.34;;;10.13;70.26
13952;BME280;39535;52.192;9.886;2022-11-03T00:04:22;101127.91;;;10.11;70.69
13952;BME280;39535;52.192;9.886;2022-11-03T00:06:49;101111.41;;;10.11;70.88
13952;BME280;39535;52.192;9.886;2022-11-03T00:09:17;101120.91;;;10.21;70.42
13952;BME280;39535;52.192;9.886;2022-11-03T00:11:46;101113.94;;;10.23;70.73
13952;BME280;39535;52.192;9.886;2022-11-03T00:14:13;101105.25;;;10.23;70.81
13952;BME280;39535;52.192;9.886;2022-11-03T00:16:40;101101.75;;;10.24;70.89
13952;BME280;39535;52.192;9.886;2022-11-03T00:19:08;101108.75;;;10.12;70.18
13952;BME280;39535;52.192;9.886;2022-11-03T00:21:36;101115.69;;;10.17;70.60
13952;BME280;39535;52.192;9.886;2022-11-03T00:24:03;101113.16;;;10.03;71.03
13952;BME280;39535;52.192;9.886;2022-11-03T00:26:31;101100.09;;;10.10;71.19
13952;BME280;39535;52.192;9.886;2022-11-03T00:28:59;101086.16;;;10.14;71.27
13952;BME280;39535;52.192;9.886;2022-11-03T00:31:27;101090.47;;;10.19;70.64
13952;BME280;39535;52.192;9.886;2022-11-03T00:33:54;101080.06;;;10.14;71.25
13952;BME280;39535;52.192;9.886;2022-11-03T00:36:23;101086.13;;;10.18;71.32
13952;BME280;39535;52.192;9.886;2022-11-03T00:38:50;101078.31;;;10.16;71.54
13952;BME280;39535;52.192;9.886;2022-11-03T00:41:17;101073.09;;;10.14;71.34
13952;BME280;39535;52.192;9.886;2022-11-03T00:43:45;101067.88;;;10.16;71.72
13952;BME280;39535;52.192;9.886;2022-11-03T00:46:12;101086.19;;;10.08;70.88
13952;BME280;39535;52.192;9.886;2022-11-03T00:48:39;101088.78;;;10.11;71.39
13952;BME280;39535;52.192;9.886;2022-11-03T00:51:07;101074.00;;;10.15;71.77
13952;BME280;39535;52.192;9.886;2022-11-03T00:53:38;101086.97;;;10.23;70.98
13952;BME280;39535;52.192;9.886;2022-11-03T00:56:06;101098.38;;;10.09;70.27
13952;BME280;39535;52.192;9.886;2022-11-03T00:58:34;101103.53;;;10.17;70.78
13952;BME280;39535;52.192;9.886;2022-11-03T01:01:04;101107.88;;;10.21;70.87
13952;BME280;39535;52.192;9.886;2022-11-03T01:03:32;101121.00;;;10.07;70.63
13952;BME280;39535;52.192;9.886;2022-11-03T01:05:59;101112.22;;;10.14;70.42
13952;BME280;39535;52.192;9.886;2022-11-03T01:08:45;101112.22;;;10.18;70.41
13952;BME280;39535;52.192;9.886;2022-11-03T01:11:14;101118.38;;;10.09;70.48
13952;BME280;39535;52.192;9.886;2022-11-03T01:13:58;101094.00;;;10.11;71.02
13952;BME280;39535;52.192;9.886;2022-11-03T01:16:25;101080.88;;;10.21;70.49
13952;BME280;39535;52.192;9.886;2022-11-03T01:18:52;101082.63;;;10.22;70.65
13952;BME280;39535;52.192;9.886;2022-11-03T01:21:19;101088.72;;;10.21;71.03
13952;BME280;39535;52.192;9.886;2022-11-03T01:23:47;101088.84;;;10.04;70.32
13952;BME280;39535;52.192;9.886;2022-11-03T01:26:14;101078.38;;;10.08;70.73
13952;BME280;39535;52.192;9.886;2022-11-03T01:28:43;101071.38;;;10.10;70.45
13952;BME280;39535;52.192;9.886;2022-11-03T01:31:11;101067.06;;;10.11;70.86
13952;BME280;39535;52.192;9.886;2022-11-03T01:33:38;101060.13;;;10.05;70.89
13952;BME280;39535;52.192;9.886;2022-11-03T01:36:05;101047.09;;;10.07;70.73
13952;BME280;39535;52.192;9.886;2022-11-03T01:38:32;101027.03;;;10.12;71.25
13952;BME280;39535;52.192;9.886;2022-11-03T01:41:02;101027.03;;;10.15;70.62
13952;BME280;39535;52.192;9.886;2022-11-03T01:43:29;101025.28;;;10.17;70.98
13952;BME280;39535;52.192;9.886;2022-11-03T01:46:02;101026.19;;;10.08;70.50
13952;BME280;39535;52.192;9.886;2022-11-03T01:48:29;101033.97;;;10.14;70.62
13952;BME280;39535;52.192;9.886;2022-11-03T01:50:57;101025.34;;;10.09;70.72
13952;BME280;39535;52.192;9.886;2022-11-03T01:53:26;101028.78;;;10.13;70.69
13952;BME280;39535;52.192;9.886;2022-11-03T01:55:53;101016.59;;;10.13;70.92
13952;BME280;39535;52.192;9.886;2022-11-03T01:58:27;101015.69;;;10.16;70.66
13952;BME280;39535;52.192;9.886;2022-11-03T02:00:56;101002.66;;;10.18;71.02
13952;BME280;39535;52.192;9.886;2022-11-03T02:03:25;100985.28;;;10.15;71.30
13952;BME280;39535;52.192;9.886;2022-11-03T02:05:54;100976.72;;;9.96;71.45
13952;BME280;39535;52.192;9.886;2022-11-03T02:08:24;100963.66;;;10.02;71.47
13952;BME280;39535;52.192;9.886;2022-11-03T02:10:52;100952.41;;;9.97;72.03
13952;BME280;39535;52.192;9.886;2022-11-03T02:13:21;100934.09;;;10.03;72.02
13952;BME280;39535;52.192;9.886;2022-11-03T02:15:51;100932.34;;;10.04;72.12
13952;BME280;39535;52.192;9.886;2022-11-03T02:18:21;100952.34;;;10.02;71.17
13952;BME280;39535;52.192;9.886;2022-11-03T02:20:57;100970.56;;;10.05;71.23
13952;BME280;39535;52.192;9.886;2022-11-03T02:23:31;100979.28;;;10.04;70.61
13952;BME280;39535;52.192;9.886;2022-11-03T02:26:05;100986.19;;;10.11;70.87
13952;BME280;39535;52.192;9.886;2022-11-03T02:28:32;100975.78;;;10.06;71.39
13952;BME280;39535;52.192;9.886;2022-11-03T02:31:06;100975.78;;;10.09;70.76
13952;BME280;39535;52.192;9.886;2022-11-03T02:33:43;100980.16;;;10.04;71.33
13952;BME280;39535;52.192;9.886;2022-11-03T02:36:17;100981.91;;;10.02;70.78
13952;BME280;39535;52.192;9.886;2022-11-03T02:38:48;100981.06;;;9.99;71.33
13952;BME280;39535;52.192;9.886;2022-11-03T02:41:20;100975.97;;;9.83;71.08
13952;BME280;39535;52.192;9.886;2022-11-03T02:43:52;100969.81;;;9.93;71.46
13952;BME280;39535;52.192;9.886;2022-11-03T02:46:23;100964.69;;;9.81;71.23
13952;BME280;39535;52.192;9.886;2022-11-03T02:48:51;100966.31;;;9.96;71.19
13952;BME280;39535;52.192;9.886;2022-11-03T02:51:17;100952.34;;;10.02;71.72
13952;BME280;39535;52.192;9.886;2022-11-03T02:53:50;100951.50;;;10.01;71.50
13952;BME280;39535;52.192;9.886;2022-11-03T02:56:23;100932.34;;;10.01;71.99
13952;BME280;39535;52.192;9.886;2022-11-03T02:58:54;100918.47;;;10.00;72.01
13952;BME280;39535;52.192;9.886;2022-11-03T03:01:26;100915.88;;;9.97;72.54
13952;BME280;39535;52.192;9.886;2022-11-03T03:03:57;100908.91;;;9.99;72.20
13952;BME280;39535;52.192;9.886;2022-11-03T03:06:27;100902.84;;;9.97;72.25
13952;BME280;39535;52.192;9.886;2022-11-03T03:08:58;100908.06;;;9.97;71.73
13952;BME280;39535;52.192;9.886;2022-11-03T03:11:27;100911.59;;;9.91;71.77
13952;BME280;39535;52.192;9.886;2022-11-03T03:14:05;100908.25;;;9.76;72.36
13952;BME280;39535;52.192;9.886;2022-11-03T03:16:40;100885.56;;;9.85;72.29
13952;BME280;39535;52.192;9.886;2022-11-03T03:19:17;100890.84;;;9.76;72.07
13952;BME280;39535;52.192;9.886;2022-11-03T03:21:45;100892.56;;;9.79;72.24
13952;BME280;39535;52.192;9.886;2022-11-03T03:24:19;100864.78;;;9.76;72.84
13952;BME280;39535;52.192;9.886;2022-11-03T03:26:51;100858.72;;;9.76;72.34
13952;BME280;39535;52.192;9.886;2022-11-03T03:29:23;100850.00;;;9.75;72.42
13952;BME280;39535;52.192;9.886;2022-11-03T03:31:54;100854.38;;;9.73;72.37
13952;BME280;39535;52.192;9.886;2022-11-03T03:34:23;100858.78;;;9.69;72.81
13952;BME280;39535;52.192;9.886;2022-11-03T03:36:51;100858.78;;;9.69;72.55
13952;BME280;39535;52.192;9.886;2022-11-03T03:39:20;100855.25;;;9.72;72.42
13952;BME280;39535;52.192;9.886;2022-11-03T03:41:50;100858.66;;;9.80;72.23
13952;BME280;39535;52.192;9.886;2022-11-03T03:44:18;100864.00;;;9.68;71.56
13952;BME280;39535;52.192;9.886;2022-11-03T03:46:50;100874.53;;;9.56;71.81
13952;BME280;39535;52.192;9.886;2022-11-03T03:49:18;100856.13;;;9.71;72.63
13952;BME280;39535;52.192;9.886;2022-11-03T03:51:45;100845.63;;;9.79;72.39
13952;BME280;39535;52.192;9.886;2022-11-03T03:54:13;100860.44;;;9.77;71.77
13952;BME280;39535;52.192;9.886;2022-11-03T03:56:41;100862.16;;;9.79;71.97
13952;BME280;39535;52.192;9.886;2022-11-03T03:59:11;100859.44;;;9.88;71.91
13952;BME280;39535;52.192;9.886;2022-11-03T04:01:37;100834.22;;;9.89;72.58
13952;BME280;39535;52.192;9.886;2022-11-03T04:04:04;100838.56;;;9.91;72.28
13952;BME280;39535;52.192;9.886;2022-11-03T04:06:30;100840.53;;;9.69;72.55
13952;BME280;39535;52.192;9.886;2022-11-03T04:08:56;100825.78;;;9.65;72.58
13952;BME280;39535;52.192;9.886;2022-11-03T04:11:23;100817.84;;;9.79;72.38
13952;BME280;39535;52.192;9.886;2022-11-03T04:14:08;100828.28;;;9.78;71.92
13952;BME280;39535;52.192;9.886;2022-11-03T04:16:53;100822.94;;;9.87;72.00
13952;BME280;39535;52.192;9.886;2022-11-03T04:19:37;100816.81;;;9.92;72.12
13952;BME280;39535;52.192;9.886;2022-11-03T04:22:21;100819.44;;;9.92;71.79
13952;BME280;39535;52.192;9.886;2022-11-03T04:24:49;100814.22;;;9.91;71.82
13952;BME280;39535;52.192;9.886;2022-11-03T04:27:37;100814.28;;;9.88;71.96
13952;BME280;39535;52.192;9.886;2022-11-03T04:30:12;100815.09;;;9.93;71.92
13952;BME280;39535;52.192;9.886;2022-11-03T04:32:41;100824.56;;;9.99;71.57
13952;BME280;39535;52.192;9.886;2022-11-03T04:35:13;100816.72;;;10.03;71.89
13952;BME280;39535;52.192;9.886;2022-11-03T04:37:41;100819.28;;;10.06;72.13
13952;BME280;39535;52.192;9.886;2022-11-03T04:40:13;100794.91;;;10.10;72.00
13952;BME280;39535;52.192;9.886;2022-11-03T04:42:40;100801.94;;;10.04;72.24
13952;BME280;39535;52.192;9.886;2022-11-03T04:45:17;100792.41;;;10.01;72.78
13952;BME280;39535;52.192;9.886;2022-11-03T04:47:48;100783.69;;;10.02;72.67
13952;BME280;39535;52.192;9.886;2022-11-03T04:50:17;100773.31;;;9.96;72.60
13952;BME280;39535;52.192;9.886;2022-11-03T04:52:45;100766.31;;;10.01;72.56
13952;BME280;39535;52.192;9.886;2022-11-03T04:55:13;100764.63;;;9.97;72.55
13952;BME280;39535;52.192;9.886;2022-11-03T04:57:40;100747.31;;;9.91;73.39
13952;BME280;39535;52.192;9.886;2022-11-03T05:00:13;100740.41;;;9.87;73.19
13952;BME280;39535;52.192;9.886;2022-11-03T05:02:40;100736.91;;;9.90;72.91
13952;BME280;39535;52.192;9.886;2022-11-03T05:05:14;100730.91;;;9.82;73.41
13952;BME280;39535;52.192;9.886;2022-11-03T05:07:42;100720.44;;;9.85;73.49
13952;BME280;39535;52.192;9.886;2022-11-03T05:10:11;100716.13;;;9.81;73.31
13952;BME280;39535;52.192;9.886;2022-11-03T05:12:40;100718.72;;;9.81;73.87
13952;BME280;39535;52.192;9.886;2022-11-03T05:15:20;100714.41;;;9.80;73.37
13952;BME280;39535;52.192;9.886;2022-11-03T05:17:48;100703.16;;;9.78;73.55
13952;BME280;39535;52.192;9.886;2022-11-03T05:20:29;100718.94;;;9.64;73.54
13952;BME280;39535;52.192;9.886;2022-11-03T05:22:56;100698.16;;;9.54;74.23
13952;BME280;39535;52.192;9.886;2022-11-03T05:25:34;100685.06;;;9.61;74.01
13952;BME280;39535;52.192;9.886;2022-11-03T05:28:10;100677.22;;;9.65;74.34
13952;BME280;39535;52.192;9.886;2022-11-03T05:30:39;100669.28;;;9.73;74.00
13952;BME280;39535;52.192;9.886;2022-11-03T05:33:16;100684.91;;;9.74;73.81
13952;BME280;39535;52.192;9.886;2022-11-03T05:35:45;100676.38;;;9.63;74.36
13952;BME280;39535;52.192;9.886;2022-11-03T05:38:14;100669.34;;;9.67;74.44
13952;BME280;39535;52.192;9.886;2022-11-03T05:40:41;100666.94;;;9.51;74.37
13952;BME280;39535;52.192;9.886;2022-11-03T05:43:09;100662.44;;;9.67;74.26
13952;BME280;39535;52.192;9.886;2022-11-03T05:45:37;100675.53;;;9.60;74.52
13952;BME280;39535;52.192;9.886;2022-11-03T05:48:17;100673.72;;;9.68;74.26
13952;BME280;39535;52.192;9.886;2022-11-03T05:50:45;100665.91;;;9.66;74.29
13952;BME280;39535;52.192;9.886;2022-11-03T05:53:22;100669.41;;;9.64;74.30
13952;BME280;39535;52.192;9.886;2022-11-03T05:55:50;100663.28;;;9.66;74.36
13952;BME280;39535;52.192;9.886;2022-11-03T05:58:21;100654.63;;;9.66;74.59
13952;BME280;39535;52.192;9.886;2022-11-03T06:00:49;100640.66;;;9.71;74.82
13952;BME280;39535;52.192;9.886;2022-11-03T06:03:18;100643.19;;;9.78;74.38
13952;BME280;39535;52.192;9.886;2022-11-03T06:05:48;100660.75;;;9.63;74.16
13952;BME280;39535;52.192;9.886;2022-11-03T06:08:18;100652.81;;;9.71;74.53
13952;BME280;39535;52.192;9.886;2022-11-03T06:10:48;100653.78;;;9.61;74.73
13952;BME280;39535;52.192;9.886;2022-11-03T06:13:18;100632.19;;;9.52;75.46
13952;BME280;39535;52.192;9.886;2022-11-03T06:15:46;100623.34;;;9.66;75.38
13952;BME280;39535;52.192;9.886;2022-11-03T06:18:14;100619.94;;;9.59;75.44
13952;BME280;39535;52.192;9.886;2022-11-03T06:20:49;100621.56;;;9.69;75.19
13952;BME280;39535;52.192;9.886;2022-11-03T06:23:17;100624.13;;;9.72;75.41
13952;BME280;39535;52.192;9.886;2022-11-03T06:25:45;100621.50;;;9.74;75.31
13952;BME280;39535;52.192;9.886;2022-11-03T06:28:16;100619.63;;;9.85;75.25
13952;BME280;39535;52.192;9.886;2022-11-03T06:30:44;100621.41;;;9.80;75.22
13952;BME280;39535;52.192;9.886;2022-11-03T06:33:13;100617.03;;;9.85;75.56
13952;BME280;39535;52.192;9.886;2022-11-03T06:35:41;100609.13;;;9.91;75.79
13952;BME280;39535;52.192;9.886;2022-11-03T06:38:15;100594.31;;;9.92;75.67
13952;BME280;39535;52.192;9.886;2022-11-03T06:40:43;100593.41;;;9.94;75.59
13952;BME280;39535;52.192;9.886;2022-11-03T06:43:17;100595.16;;;9.96;75.51
13952;BME280;39535;52.192;9.886;2022-11-03T06:45:51;100598.63;;;9.94;75.17
13952;BME280;39535;52.192;9.886;2022-11-03T06:48:24;100591.72;;;9.90;75.38
13952;BME280;39535;52.192;9.886;2022-11-03T06:50:51;100574.38;;;9.89;75.75
13952;BME280;39535;52.192;9.886;2022-11-03T06:53:24;100584.66;;;9.99;75.40
13952;BME280;39535;52.192;9.886;2022-11-03T06:55:52;100591.63;;;9.97;75.24
13952;BME280;39535;52.192;9.886;2022-11-03T06:58:24;100583.88;;;9.92;75.28
13952;BME280;39535;52.192;9.886;2022-11-03T07:00:54;100587.47;;;9.85;75.40
13952;BME280;39535;52.192;9.886;2022-11-03T07:03:23;100569.09;;;9.94;75.36
13952;BME280;39535;52.192;9.886;2022-11-03T07:05:55;100577.66;;;10.04;75.68
13952;BME280;39535;52.192;9.886;2022-11-03T07:08:27;100566.34;;;10.03;75.62
13952;BME280;39535;52.192;9.886;2022-11-03T07:10:59;100565.47;;;10.03;75.43
13952;BME280;39535;52.192;9.886;2022-11-03T07:13:28;100572.34;;;10.08;75.77
13952;BME280;39535;52.192;9.886;2022-11-03T07:15:55;100567.91;;;10.15;75.42
13952;BME280;39535;52.192;9.886;2022-11-03T07:18:24;100559.19;;;10.16;75.39
13952;BME280;39535;52.192;9.886;2022-11-03T07:20:53;100568.78;;;10.16;75.48
13952;BME280;39535;52.192;9.886;2022-11-03T07:23:27;100567.88;;;10.17;75.19
13952;BME280;39535;52.192;9.886;2022-11-03T07:25:57;100563.56;;;10.16;75.29
13952;BME280;39535;52.192;9.886;2022-11-03T07:28:35;100558.22;;;10.25;75.28
13952;BME280;39535;52.192;9.886;2022-11-03T07:31:11;100555.47;;;10.34;75.28
13952;BME280;39535;52.192;9.886;2022-11-03T07:33:39;100563.28;;;10.36;74.89
13952;BME280;39535;52.192;9.886;2022-11-03T07:36:06;100576.53;;;10.19;75.08
13952;BME280;39535;52.192;9.886;2022-11-03T07:38:37;100571.19;;;10.31;75.04
13952;BME280;39535;52.192;9.886;2022-11-03T07:41:04;100579.88;;;10.28;75.14
13952;BME280;39535;52.192;9.886;2022-11-03T07:43:33;100573.69;;;10.37;74.53
13952;BME280;39535;52.192;9.886;2022-11-03T07:46:01;100577.16;;;10.39;74.48
13952;BME280;39535;52.192;9.886;2022-11-03T07:48:33;100582.25;;;10.45;74.53
13952;BME280;39535;52.192;9.886;2022-11-03T07:51:14;100591.00;;;10.43;74.50
13952;BME280;39535;52.192;9.886;2022-11-03T07:53:44;100574.41;;;10.47;74.59
13952;BME280;39535;52.192;9.886;2022-11-03T07:56:17;100585.72;;;10.47;74.48
13952;BME280;39535;52.192;9.886;2022-11-03T07:58:45;100570.13;;;10.43;74.58
13952;BME280;39535;52.192;9.886;2022-11-03T08:01:22;100553.41;;;10.55;74.82
13952;BME280;39535;52.192;9.886;2022-11-03T08:03:50;100559.72;;;10.41;74.73
13952;BME280;39535;52.192;9.886;2022-11-03T08:06:17;100549.28;;;10.40;75.09
13952;BME280;39535;52.192;9.886;2022-11-03T08:08:44;100529.13;;;10.49;75.01
13952;BME280;39535;52.192;9.886;2022-11-03T08:11:11;100529.13;;;10.49;74.78
13952;BME280;39535;52.192;9.886;2022-11-03T08:13:37;100530.78;;;10.55;75.03
13952;BME280;39535;52.192;9.886;2022-11-03T08:16:04;100524.41;;;10.70;74.90
13952;BME280;39535;52.192;9.886;2022-11-03T08:18:31;100513.06;;;10.72;75.24
13952;BME280;39535;52.192;9.886;2022-11-03T08:20:57;100514.59;;;10.84;74.74
13952;BME280;39535;52.192;9.886;2022-11-03T08:23:23;100529.31;;;10.87;74.66
13952;BME280;39535;52.192;9.886;2022-11-03T08:25:51;100533.59;;;10.91;74.71
13952;BME280;39535;52.192;9.886;2022-11-03T08:28:18;100532.69;;;10.93;74.60
13952;BME280;39535;52.192;9.886;2022-11-03T08:30:44;100524.03;;;10.90;74.99
13952;BME280;39535;52.192;9.886;2022-11-03T08:33:11;100524.94;;;10.89;74.78
13952;BME280;39535;52.192;9.886;2022-11-03T08:35:37;100517.09;;;10.89;75.33
13952;BME280;39535;52.192;9.886;2022-11-03T08:38:03;100495.16;;;10.98;75.24
13952;BME280;39535;52.192;9.886;2022-11-03T08:40:30;100492.53;;;10.98;75.14
13952;BME280;39535;52.192;9.886;2022-11-03T08:42:58;100481.25;;;10.97;75.58
13952;BME280;39535;52.192;9.886;2022-11-03T08:45:27;100474.94;;;11.07;75.08
13952;BME280;39535;52.192;9.886;2022-11-03T08:47:53;100452.19;;;11.14;75.67
13952;BME280;39535;52.192;9.886;2022-11-03T08:50:20;100445.03;;;11.22;75.71
13952;BME280;39535;52.192;9.886;2022-11-03T08:52:46;100461.56;;;11.23;75.63
13952;BME280;39535;52.192;9.886;2022-11-03T08:55:13;100447.63;;;11.24;75.09
13952;BME280;39535;52.192;9.886;2022-11-03T08:57:40;100461.25;;;11.38;74.96
13952;BME280;39535;52.192;9.886;2022-11-03T09:00:09;100461.13;;;11.43;75.27
13952;BME280;39535;52.192;9.886;2022-11-03T09:02:36;100453.25;;;11.46;75.12
13952;BME280;39535;52.192;9.886;2022-11-03T09:05:02;100447.91;;;11.49;74.66
13952;BME280;39535;52.192;9.886;2022-11-03T09:07:30;100452.22;;;11.51;75.17
13952;BME280;39535;52.192;9.886;2022-11-03T09:09:56;100449.75;;;11.45;75.08
13952;BME280;39535;52.192;9.886;2022-11-03T09:12:22;100453.09;;;11.52;75.30
13952;BME280;39535;52.192;9.886;2022-11-03T09:14:49;100435.53;;;11.57;75.58
13952;BME280;39535;52.192;9.886;2022-11-03T09:17:17;100426.59;;;11.67;75.17
13952;BME280;39535;52.192;9.886;2022-11-03T09:19:43;100414.19;;;11.76;76.66
13952;BME280;39535;52.192;9.886;2022-11-03T09:22:10;100403.44;;;11.89;76.43
13952;BME280;39535;52.192;9.886;2022-11-03T09:24:36;100447.84;;;11.91;73.69
13952;BME280;39535;52.192;9.886;2022-11-03T09:27:02;100478.25;;;11.95;73.24
13952;BME280;39535;52.192;9.886;2022-11-03T09:29:30;100487.56;;;12.07;73.36
13952;BME280;39535;52.192;9.886;2022-11-03T09:31:56;100482.28;;;12.10;73.98
13952;BME280;39535;52.192;9.886;2022-11-03T09:34:24;100490.13;;;12.10;73.18
13952;BME280;39535;52.192;9.886;2022-11-03T09:36:51;100510.06;;;12.16;72.94
13952;BME280;39535;52.192;9.886;2022-11-03T09:39:17;100515.59;;;12.03;73.07
13952;BME280;39535;52.192;9.886;2022-11-03T09:41:43;100511.25;;;12.01;73.20
13952;BME280;39535;52.192;9.886;2022-11-03T09:44:10;100502.38;;;12.08;73.08
13952;BME280;39535;52.192;9.886;2022-11-03T09:46:37;100503.25;;;12.07;73.44
13952;BME280;39535;52.192;9.886;2022-11-03T09:49:04;100490.66;;;12.23;73.35
13952;BME280;39535;52.192;9.886;2022-11-03T09:51:34;100487.91;;;12.29;72.47
13952;BME280;39535;52.192;9.886;2022-11-03T09:54:02;100499.06;;;12.37;73.41
13952;BME280;39535;52.192;9.886;2022-11-03T09:56:30;100505.94;;;12.41;72.89
13952;BME280;39535;52.192;9.886;2022-11-03T09:58:58;100508.53;;;12.41;72.69
13952;BME280;39535;52.192;9.886;2022-11-03T10:01:24;100507.44;;;12.50;72.62
13952;BME280;39535;52.192;9.886;2022-11-03T10:03:51;100518.56;;;12.58;71.66
13952;BME280;39535;52.192;9.886;2022-11-03T10:06:22;100493.03;;;12.66;72.54
13952;BME280;39535;52.192;9.886;2022-11-03T10:08:50;100455.13;;;12.80;72.50
13952;BME280;39535;52.192;9.886;2022-11-03T10:11:16;100464.53;;;12.88;72.62
13952;BME280;39535;52.192;9.886;2022-11-03T10:13:45;100490.66;;;12.90;71.92
13952;BME280;39535;52.192;9.886;2022-11-03T10:16:14;100515.84;;;12.94;71.10
13952;BME280;39535;52.192;9.886;2022-11-03T10:18:43;100514.72;;;13.04;71.19
13952;BME280;39535;52.192;9.886;2022-11-03T10:21:13;100523.44;;;13.05;70.98
13952;BME280;39535;52.192;9.886;2022-11-03T10:23:40;100500.66;;;13.07;71.54
13952;BME280;39535;52.192;9.886;2022-11-03T10:26:10;100516.41;;;13.07;70.86
13952;BME280;39535;52.192;9.886;2022-11-03T10:28:37;100544.53;;;13.00;70.56
13952;BME280;39535;52.192;9.886;2022-11-03T10:31:06;100553.28;;;12.99;70.79
13952;BME280;39535;52.192;9.886;2022-11-03T10:33:51;100548.53;;;13.14;70.86
13952;BME280;39535;52.192;9.886;2022-11-03T10:36:24;100552.06;;;13.13;70.40
13952;BME280;39535;52.192;9.886;2022-11-03T10:38:51;100570.03;;;12.94;70.10
13952;BME280;39535;52.192;9.886;2022-11-03T10:41:20;100561.34;;;12.91;69.84
13952;BME280;39535;52.192;9.886;2022-11-03T10:43:59;100564.38;;;12.76;70.44
13952;BME280;39535;52.192;9.886;2022-11-03T10:46:26;100544.38;;;12.74;70.87
13952;BME280;39535;52.192;9.886;2022-11-03T10:49:01;100504.69;;;12.87;71.00
13952;BME280;39535;52.192;9.886;2022-11-03T10:51:27;100488.59;;;13.01;71.60
13952;BME280;39535;52.192;9.886;2022-11-03T10:53:54;100489.72;;;12.93;70.90
13952;BME280;39535;52.192;9.886;2022-11-03T10:56:22;100487.97;;;12.93;70.94
13952;BME280;39535;52.192;9.886;2022-11-03T10:58:50;100468.31;;;13.08;71.41
13952;BME280;39535;52.192;9.886;2022-11-03T11:01:16;100448.88;;;13.15;71.32
13952;BME280;39535;52.192;9.886;2022-11-03T11:03:43;100448.63;;;13.24;71.17
13952;BME280;39535;52.192;9.886;2022-11-03T11:06:21;100462.59;;;13.25;71.07
13952;BME280;39535;52.192;9.886;2022-11-03T11:08:50;100458.19;;;13.25;70.68
13952;BME280;39535;52.192;9.886;2022-11-03T11:11:20;100452.75;;;13.33;71.04
13952;BME280;39535;52.192;9.886;2022-11-03T11:14:22;100466.63;;;13.37;70.48
13952;BME280;39535;52.192;9.886;2022-11-03T11:16:50;100449.94;;;13.39;70.93
13952;BME280;39535;52.192;9.886;2022-11-03T11:19:17;100440.31;;;13.40;70.49
13952;BME280;39535;52.192;9.886;2022-11-03T11:22:11;100451.34;;;13.51;70.73
13952;BME280;39535;52.192;9.886;2022-11-03T11:24:58;100448.47;;;13.59;70.50
13952;BME280;39535;52.192;9.886;2022-11-03T11:31:10;100445.34;;;13.76;70.08
13952;BME280;39535;52.192;9.886;2022-11-03T11:36:33;100445.38;;;13.74;69.93
13952;BME280;39535;52.192;9.886;2022-11-03T11:39:01;100419.91;;;13.78;69.69
13952;BME280;39535;52.192;9.886;2022-11-03T11:44:55;100423.59;;;13.72;69.77
13952;BME280;39535;52.192;9.886;2022-11-03T11:47:48;100414.88;;;13.72;70.31
13952;BME280;39535;52.192;9.886;2022-11-03T11:50:20;100386.50;;;13.56;69.68
13952;BME280;39535;52.192;9.886;2022-11-03T11:52:49;100400.38;;;13.60;69.65
13952;BME280;39535;52.192;9.886;2022-11-03T11:55:18;100395.03;;;13.63;69.68
13952;BME280;39535;52.192;9.886;2022-11-03T11:57:46;100401.91;;;13.65;69.52
13952;BME280;39535;52.192;9.886;2022-11-03T12:00:20;100380.19;;;13.62;70.67
13952;BME280;39535;52.192;9.886;2022-11-03T12:02:50;100347.03;;;13.59;70.61
13952;BME280;39535;52.192;9.886;2022-11-03T12:05:19;100364.59;;;13.57;70.26
13952;BME280;39535;52.192;9.886;2022-11-03T12:07:46;100361.84;;;13.62;70.12
13952;BME280;39535;52.192;9.886;2022-11-03T12:10:14;100318.06;;;13.64;72.46
13952;BME280;39535;52.192;9.886;2022-11-03T12:12:41;100305.53;;;13.72;71.25
13952;BME280;39535;52.192;9.886;2022-11-03T12:18:34;100314.56;;;13.63;70.25
13952;BME280;39535;52.192;9.886;2022-11-03T12:21:02;100263.91;;;13.61;71.04
13952;BME280;39535;52.192;9.886;2022-11-03T12:23:34;100241.78;;;13.70;72.80
13952;BME280;39535;52.192;9.886;2022-11-03T12:26:02;100241.03;;;13.66;71.67
13952;BME280;39535;52.192;9.886;2022-11-03T12:28:30;100270.19;;;13.57;71.03
13952;BME280;39535;52.192;9.886;2022-11-03T12:30:56;100294.03;;;13.49;70.05
13952;BME280;39535;52.192;9.886;2022-11-03T12:33:23;100259.00;;;13.52;71.50
13952;BME280;39535;52.192;9.886;2022-11-03T12:35:50;100230.75;;;13.60;72.18
13952;BME280;39535;52.192;9.886;2022-11-03T12:38:17;100229.16;;;13.56;70.64
13952;BME280;39535;52.192;9.886;2022-11-03T12:40:43;100225.66;;;13.56;70.90
13952;BME280;39535;52.192;9.886;2022-11-03T12:43:09;100225.66;;;13.56;71.33
13952;BME280;39535;52.192;9.886;2022-11-03T12:45:36;100242.56;;;13.47;71.66
13952;BME280;39535;52.192;9.886;2022-11-03T12:48:02;100222.44;;;13.47;71.30
13952;BME280;39535;52.192;9.886;2022-11-03T12:50:30;100238.25;;;13.46;70.60
13952;BME280;39535;52.192;9.886;2022-11-03T12:52:58;100246.63;;;13.56;70.47
13952;BME280;39535;52.192;9.886;2022-11-03T12:55:24;100262.47;;;13.53;70.21
13952;BME280;39535;52.192;9.886;2022-11-03T12:57:51;100261.56;;;13.54;69.90
13952;BME280;39535;52.192;9.886;2022-11-03T13:00:17;100252.31;;;13.68;70.07
13952;BME280;39535;52.192;9.886;2022-11-03T13:02:43;100236.28;;;13.78;71.11
13952;BME280;39535;52.192;9.886;2022-11-03T13:05:10;100219.56;;;13.80;70.14
13952;BME280;39535;52.192;9.886;2022-11-03T13:07:39;100222.69;;;13.90;71.22
13952;BME280;39535;52.192;9.886;2022-11-03T13:10:08;100222.56;;;13.93;70.29
13952;BME280;39535;52.192;9.886;2022-11-03T13:12:34;100246.13;;;13.95;69.10
13952;BME280;39535;52.192;9.886;2022-11-03T13:15:07;100233.16;;;13.92;69.62
13952;BME280;39535;52.192;9.886;2022-11-03T13:17:34;100281.41;;;13.87;68.68
13952;BME280;39535;52.192;9.886;2022-11-03T13:20:00;100271.72;;;13.89;69.67